Time;durP1;ratioP1;P1;durP2;ratioP2;P2;SDS_P1;SDS_P2;PMS_P1;PMS_P2;Temp;Humidity;BMP_temperature;BMP_pressure;BME280_temperature;BME280_humidity;BME280_pressure;Samples;Min_cycle;Max_cycle;Signal;HPM_P1;HPM_P2
2021/11/02 00:00:09;;;;;;;;;;;6.70;1.00;;;;;;5012037;28;19909;-75
2021/11/02 00:02:34;;;;;;;;;;;6.70;1.00;;;;;;5012831;28;19929;-75
2021/11/02 00:05:01;;;;;;;;;;;6.70;1.00;;;;;;5012962;28;19913;-75
2021/11/02 00:07:26;;;;;;;;;;;6.60;1.00;;;;;;5012605;28;20325;-75
2021/11/02 00:09:53;;;;;;;;;;;6.50;1.00;;;;;;5012059;28;19968;-74
2021/11/02 00:12:19;;;;;;;;;;;6.40;1.00;;;;;;5010851;28;19913;-73
2021/11/02 00:14:45;;;;;;;;;;;6.40;1.00;;;;;;5010961;28;19913;-75
2021/11/02 00:17:22;;;;;;;;;;;6.40;1.00;;;;;;5027547;28;19916;-75
2021/11/02 00:19:49;;;;;;;;;;;6.40;1.00;;;;;;5005912;28;19920;-75
2021/11/02 00:22:16;;;;;;;;;;;6.40;1.00;;;;;;5010849;28;19921;-75
2021/11/02 00:27:26;;;;;;;;;;;6.40;1.00;;;;;;5011479;28;19913;-73
2021/11/02 00:29:53;;;;;;;;;;;6.30;1.00;;;;;;5011316;28;19913;-73
2021/11/02 00:32:18;;;;;;;;;;;6.20;1.00;;;;;;5011042;28;20370;-75
2021/11/02 00:34:44;;;;;;;;;;;6.20;1.00;;;;;;5011184;28;19963;-75
2021/11/02 00:37:10;;;;;;;;;;;6.20;1.00;;;;;;5011584;28;19909;-74
2021/11/02 00:39:35;;;;;;;;;;;6.20;1.00;;;;;;5009918;28;19909;-75
2021/11/02 00:42:01;;;;;;;;;;;6.20;1.00;;;;;;5009655;28;19909;-74
2021/11/02 00:44:26;;;;;;;;;;;6.20;1.00;;;;;;5010413;28;19914;-75
2021/11/02 00:49:22;;;;;;;;;;;6.50;1.00;;;;;;5008646;28;20346;-75
2021/11/02 00:51:48;;;;;;;;;;;6.60;1.00;;;;;;5009562;28;19909;-74
2021/11/02 00:54:14;;;;;;;;;;;6.70;1.00;;;;;;5009540;28;19913;-74
2021/11/02 00:56:40;;;;;;;;;;;6.80;1.00;;;;;;4991980;28;19909;-75
2021/11/02 00:59:06;;;;;;;;;;;6.80;1.00;;;;;;5008992;28;20428;-75
2021/11/02 01:01:31;;;;;;;;;;;6.90;1.00;;;;;;5009150;28;19928;-73
2021/11/02 01:03:58;;;;;;;;;;;7.00;1.00;;;;;;5009449;28;20341;-74
2021/11/02 01:06:23;;;;;;;;;;;7.10;1.00;;;;;;4991724;28;19928;-75
2021/11/02 01:08:49;;;;;;;;;;;7.10;1.00;;;;;;4992477;28;19913;-75
2021/11/02 01:11:14;;;;;;;;;;;7.20;1.00;;;;;;5009053;28;20003;-75
2021/11/02 01:13:40;;;;;;;;;;;7.20;1.00;;;;;;5009708;28;20715;-75
2021/11/02 01:16:05;;;;;;;;;;;7.30;1.00;;;;;;5009423;28;20385;-75
2021/11/02 01:18:31;;;;;;;;;;;7.30;1.00;;;;;;5009595;28;19910;-76
2021/11/02 01:20:57;;;;;;;;;;;7.30;1.00;;;;;;5009068;28;19916;-75
2021/11/02 01:23:23;;;;;;;;;;;7.40;1.00;;;;;;5009398;28;19909;-76
2021/11/02 01:25:49;;;;;;;;;;;7.40;1.00;;;;;;4991564;28;19913;-76
2021/11/02 01:28:14;;;;;;;;;;;7.50;1.00;;;;;;4991252;28;19913;-76
2021/11/02 01:30:40;;;;;;;;;;;7.50;1.00;;;;;;4990681;28;19956;-74
2021/11/02 01:33:06;;;;;;;;;;;7.50;1.00;;;;;;4990358;28;20012;-75
2021/11/02 01:35:31;;;;;;;;;;;7.60;1.00;;;;;;4991574;28;19916;-75
2021/11/02 01:37:57;;;;;;;;;;;7.60;1.00;;;;;;4990442;28;20008;-75
2021/11/02 01:40:22;;;;;;;;;;;7.60;1.00;;;;;;4973739;28;19917;-75
2021/11/02 01:42:49;;;;;;;;;;;7.70;1.00;;;;;;4991354;28;19918;-75
2021/11/02 01:45:17;;;;;;;;;;;7.70;1.00;;;;;;4991642;28;19971;-75
2021/11/02 01:47:44;;;;;;;;;;;7.60;1.00;;;;;;5010650;28;19921;-75
2021/11/02 01:50:10;;;;;;;;;;;7.50;1.00;;;;;;5010874;28;20050;-75
2021/11/02 01:52:36;;;;;;;;;;;7.50;1.00;;;;;;5011350;28;19917;-75
2021/11/02 01:55:02;;;;;;;;;;;7.50;1.00;;;;;;4992757;28;19913;-74
2021/11/02 01:57:27;;;;;;;;;;;7.50;1.00;;;;;;5010359;28;19927;-75
2021/11/02 01:59:54;;;;;;;;;;;7.50;1.00;;;;;;5009181;28;20639;-76
2021/11/02 02:02:26;;;;;;;;;;;7.50;1.00;;;;;;5008710;28;19909;-75
2021/11/02 02:05:18;;;;;;;;;;;7.50;1.00;;;;;;4991390;28;19917;-75
2021/11/02 02:08:01;;;;;;;;;;;7.50;1.00;;;;;;5008625;28;19914;-75
2021/11/02 02:10:27;;;;;;;;;;;7.60;1.00;;;;;;5011121;28;19917;-75
2021/11/02 02:13:01;;;;;;;;;;;7.60;1.00;;;;;;5013100;28;19913;-75
2021/11/02 02:15:50;;;;;;;;;;;7.50;1.00;;;;;;4996065;28;19910;-75
2021/11/02 02:18:18;;;;;;;;;;;7.60;1.00;;;;;;5007678;28;19914;-75
2021/11/02 02:21:02;;;;;;;;;;;7.60;1.00;;;;;;5013153;28;19914;-75
2021/11/02 02:23:44;;;;;;;;;;;7.60;1.00;;;;;;5012563;28;19987;-75
2021/11/02 02:26:28;;;;;;;;;;;7.60;1.00;;;;;;5012160;28;19944;-75
2021/11/02 02:28:59;;;;;;;;;;;7.60;1.00;;;;;;5013200;28;19956;-75
2021/11/02 02:31:27;;;;;;;;;;;7.60;1.00;;;;;;5012442;28;19914;-75
2021/11/02 02:33:53;;;;;;;;;;;7.60;1.00;;;;;;5012178;28;20004;-74
2021/11/02 02:36:19;;;;;;;;;;;7.60;1.00;;;;;;4994276;28;19917;-75
2021/11/02 02:38:45;;;;;;;;;;;7.70;1.00;;;;;;5012235;28;19918;-74
2021/11/02 02:41:11;;;;;;;;;;;7.70;1.00;;;;;;4993792;28;20402;-75
2021/11/02 02:43:39;;;;;;;;;;;7.60;1.00;;;;;;5011839;28;19914;-75
2021/11/02 02:46:06;;;;;;;;;;;7.70;1.00;;;;;;5012031;28;19917;-74
2021/11/02 02:48:32;;;;;;;;;;;7.70;1.00;;;;;;5012491;28;20417;-75
2021/11/02 02:50:58;;;;;;;;;;;7.60;1.00;;;;;;5012176;28;19921;-75
2021/11/02 02:53:24;;;;;;;;;;;7.60;1.00;;;;;;5011517;28;19979;-75
2021/11/02 02:55:50;;;;;;;;;;;7.60;1.00;;;;;;5011765;28;20000;-75
2021/11/02 02:58:16;;;;;;;;;;;7.60;1.00;;;;;;5012218;28;20439;-75
2021/11/02 03:00:42;;;;;;;;;;;7.50;1.00;;;;;;5011174;28;20502;-75
2021/11/02 03:03:09;;;;;;;;;;;7.50;1.00;;;;;;5010882;28;20259;-75
2021/11/02 03:05:35;;;;;;;;;;;7.50;1.00;;;;;;5011817;28;19944;-75
2021/11/02 03:08:02;;;;;;;;;;;7.40;1.00;;;;;;5012361;28;19909;-75
2021/11/02 03:10:27;;;;;;;;;;;7.40;1.00;;;;;;5011717;28;20303;-75
2021/11/02 03:12:55;;;;;;;;;;;7.40;1.00;;;;;;5011639;28;19988;-75
2021/11/02 03:15:44;;;;;;;;;;;7.40;1.00;;;;;;4993569;28;19916;-76
2021/11/02 03:48:00;;;;;;;;;;;7.30;1.00;;;;;;4991889;28;20016;-75
2021/11/02 03:51:06;;;;;;;;;;;7.30;1.00;;;;;;4968571;28;19918;-75
2021/11/02 03:56:37;;;;;;;;;;;7.30;1.00;;;;;;4991011;28;20021;-75
2021/11/02 04:31:08;;;;;;;;;;;7.70;1.00;;;;;;5010483;28;19909;-75
2021/11/02 05:55:13;;;;;;;;;;;7.30;1.00;;;;;;4990018;28;19933;-75
2021/11/02 05:57:52;;;;;;;;;;;7.40;1.00;;;;;;4991198;28;19993;-75
2021/11/02 06:01:00;;;;;;;;;;;7.50;1.00;;;;;;4998269;28;20036;-75
2021/11/02 06:03:21;;;;;;;;;;;7.60;1.00;;;;;;4992606;28;20443;-75
2021/11/02 06:30:52;;;;;;;;;;;7.40;1.00;;;;;;4929509;29;20308;-76
2021/11/02 06:52:40;;;;;;;;;;;8.40;1.00;;;;;;5029843;28;20031;-75
2021/11/02 07:18:59;;;;;;;;;;;13.50;1.00;;;;;;5031318;28;19909;-75
2021/11/02 07:21:37;;;;;;;;;;;12.80;1.00;;;;;;5031542;28;20253;-75
2021/11/02 07:24:10;;;;;;;;;;;12.00;1.00;;;;;;5013110;28;19920;-77
2021/11/02 07:26:44;;;;;;;;;;;11.50;1.00;;;;;;5031647;28;19913;-75
2021/11/02 08:47:18;;;;;;;;;;;23.20;99.90;;;;;;5036762;28;20008;-75
2021/11/02 08:49:46;;;;;;;;;;;21.10;99.90;;;;;;5036576;28;19928;-75
2021/11/02 08:52:15;;;;;;;;;;;19.70;99.90;;;;;;5031740;28;20325;-75
2021/11/02 08:54:41;;;;;;;;;;;18.60;99.90;;;;;;5030008;28;20450;-76
2021/11/02 08:57:07;;;;;;;;;;;17.80;99.90;;;;;;5011448;28;19964;-76
2021/11/02 08:59:33;;;;;;;;;;;17.20;99.90;;;;;;5011958;28;19955;-76
2021/11/02 09:01:59;;;;;;;;;;;16.90;99.90;;;;;;5010904;28;19913;-75
2021/11/02 09:04:29;;;;;;;;;;;16.80;99.90;;;;;;5029737;28;19920;-75
2021/11/02 09:06:54;;;;;;;;;;;18.00;99.90;;;;;;5028899;28;19916;-77
2021/11/02 09:09:20;;;;;;;;;;;18.60;99.90;;;;;;5029631;28;20004;-76
2021/11/02 09:11:47;;;;;;;;;;;18.90;99.90;;;;;;5029037;28;19914;-76
2021/11/02 09:14:15;;;;;;;;;;;18.20;99.90;;;;;;5030897;28;19952;-76
2021/11/02 09:16:45;;;;;;;;;;;17.50;99.90;;;;;;5028966;28;19920;-76
2021/11/02 09:19:13;;;;;;;;;;;17.10;99.90;;;;;;5029675;28;19924;-77
2021/11/02 09:21:38;;;;;;;;;;;16.60;99.90;;;;;;5029655;28;19931;-77
2021/11/02 09:24:04;;;;;;;;;;;16.00;99.90;;;;;;5029192;28;20099;-77
2021/11/02 09:26:31;;;;;;;;;;;15.40;99.90;;;;;;5028902;28;20305;-77
2021/11/02 09:29:00;;;;;;;;;;;14.80;99.90;;;;;;5013050;28;19954;-77
2021/11/02 09:31:27;;;;;;;;;;;14.30;99.90;;;;;;5011387;28;19913;-76
2021/11/02 09:33:53;;;;;;;;;;;13.80;99.90;;;;;;5011239;28;20379;-75
2021/11/02 09:36:19;;;;;;;;;;;13.40;99.90;;;;;;5011133;28;19956;-77
2021/11/02 09:38:59;;;;;;;;;;;13.10;99.90;;;;;;5029875;28;20008;-77
2021/11/02 09:41:37;;;;;;;;;;;12.90;99.90;;;;;;5028395;28;20011;-76
2021/11/02 09:44:04;;;;;;;;;;;12.80;99.90;;;;;;5028548;28;19944;-76
2021/11/02 09:46:30;;;;;;;;;;;13.00;99.90;;;;;;5010909;28;20031;-76
2021/11/02 09:49:16;;;;;;;;;;;13.10;99.90;;;;;;5030099;28;19986;-76
2021/11/02 09:51:50;;;;;;;;;;;13.10;99.90;;;;;;4998973;28;19914;-77
2021/11/02 09:54:20;;;;;;;;;;;12.90;99.90;;;;;;5011634;28;19921;-75
2021/11/02 09:56:55;;;;;;;;;;;12.80;99.90;;;;;;5029530;28;19945;-75
2021/11/02 09:59:44;;;;;;;;;;;12.80;1.00;;;;;;5030067;28;20314;-75
2021/11/02 10:02:20;;;;;;;;;;;12.70;1.00;;;;;;4999771;28;20381;-75
2021/11/02 10:05:02;;;;;;;;;;;12.60;1.00;;;;;;5028739;28;19909;-76
2021/11/02 10:07:41;;;;;;;;;;;12.40;1.00;;;;;;5028832;28;20635;-75
2021/11/02 10:10:10;;;;;;;;;;;12.30;1.00;;;;;;5028484;28;20325;-75
2021/11/02 10:12:41;;;;;;;;;;;12.20;99.90;;;;;;5028989;28;19920;-75
2021/11/02 10:15:23;;;;;;;;;;;12.20;99.90;;;;;;5028607;28;19909;-76
2021/11/02 10:18:06;;;;;;;;;;;12.20;99.90;;;;;;5028975;28;19924;-76
2021/11/02 10:20:35;;;;;;;;;;;12.10;99.90;;;;;;5008173;28;20354;-76
2021/11/02 10:23:21;;;;;;;;;;;11.90;1.00;;;;;;4997424;28;19910;-75
2021/11/02 10:26:05;;;;;;;;;;;11.80;1.00;;;;;;5028513;28;20013;-76
2021/11/02 10:28:40;;;;;;;;;;;11.80;1.00;;;;;;5029277;28;19909;-76
2021/11/02 10:31:11;;;;;;;;;;;11.90;99.90;;;;;;5030331;28;19910;-77
2021/11/02 10:33:42;;;;;;;;;;;12.00;1.00;;;;;;5014767;28;19909;-77
2021/11/02 10:36:33;;;;;;;;;;;12.20;1.00;;;;;;5015925;28;19993;-76
2021/11/02 10:39:17;;;;;;;;;;;12.30;1.00;;;;;;5034104;28;19944;-76
2021/11/02 10:41:45;;;;;;;;;;;12.40;99.90;;;;;;5016213;28;19913;-77
2021/11/02 10:44:11;;;;;;;;;;;12.50;99.90;;;;;;5032247;28;19970;-75
2021/11/02 10:46:38;;;;;;;;;;;12.90;1.00;;;;;;5031063;28;20547;-76
2021/11/02 10:49:26;;;;;;;;;;;13.20;1.00;;;;;;5032231;28;19917;-75
2021/11/02 10:52:03;;;;;;;;;;;13.20;1.00;;;;;;5020469;28;19913;-76
2021/11/02 10:54:37;;;;;;;;;;;12.90;1.00;;;;;;5014080;28;20680;-76
2021/11/02 10:57:15;;;;;;;;;;;12.70;1.00;;;;;;5032928;28;19913;-76
2021/11/02 10:59:47;;;;;;;;;;;12.40;1.00;;;;;;5033253;28;19988;-76
2021/11/02 11:02:20;;;;;;;;;;;12.20;1.00;;;;;;5031738;28;19913;-76
2021/11/02 11:04:47;;;;;;;;;;;11.80;1.00;;;;;;5031541;28;19913;-75
2021/11/02 11:07:15;;;;;;;;;;;11.60;99.90;;;;;;5031681;28;20350;-75
2021/11/02 11:09:42;;;;;;;;;;;11.50;1.00;;;;;;5032432;28;19914;-76
2021/11/02 11:12:08;;;;;;;;;;;11.40;1.00;;;;;;5032150;28;20287;-75
2021/11/02 11:14:34;;;;;;;;;;;11.30;1.00;;;;;;5033972;28;19920;-75
2021/11/02 11:16:59;;;;;;;;;;;11.10;99.90;;;;;;5033362;28;19909;-75
2021/11/02 11:19:31;;;;;;;;;;;11.00;1.00;;;;;;5034747;28;19913;-76
2021/11/02 11:21:59;;;;;;;;;;;11.00;1.00;;;;;;5032435;28;19923;-75
2021/11/02 11:24:33;;;;;;;;;;;10.90;1.00;;;;;;5026062;28;20007;-75
2021/11/02 11:27:04;;;;;;;;;;;10.90;99.90;;;;;;5032706;28;19913;-75
2021/11/02 11:29:32;;;;;;;;;;;10.90;99.90;;;;;;5032803;28;19965;-76
2021/11/02 11:31:58;;;;;;;;;;;11.00;1.00;;;;;;5030424;28;19917;-74
2021/11/02 11:34:30;;;;;;;;;;;11.00;86.30;;;;;;5031592;28;20289;-74
2021/11/02 11:36:59;;;;;;;;;;;11.10;1.00;;;;;;5031808;28;19909;-76
2021/11/02 11:39:26;;;;;;;;;;;11.20;99.90;;;;;;5031208;28;19995;-75
2021/11/02 11:41:52;;;;;;;;;;;11.30;99.90;;;;;;5030140;28;19916;-76
2021/11/02 11:44:18;;;;;;;;;;;11.50;35.50;;;;;;5031100;28;19913;-76
2021/11/02 11:46:46;;;;;;;;;;;11.40;1.00;;;;;;5030363;28;19917;-76
2021/11/02 11:49:21;;;;;;;;;;;11.40;1.00;;;;;;5031989;28;20007;-76
2021/11/02 11:51:52;;;;;;;;;;;11.30;1.00;;;;;;5033957;28;19920;-76
2021/11/02 11:54:18;;;;;;;;;;;11.30;22.20;;;;;;5015500;28;19992;-76
2021/11/02 11:56:43;;;;;;;;;;;11.40;99.90;;;;;;5031390;28;19995;-76
2021/11/02 11:59:16;;;;;;;;;;;11.40;1.00;;;;;;5031934;28;19951;-74
2021/11/02 12:01:42;;;;;;;;;;;11.30;1.00;;;;;;5031867;28;19913;-75
2021/11/02 12:04:10;;;;;;;;;;;11.20;1.00;;;;;;5014083;28;19920;-76
2021/11/02 12:06:38;;;;;;;;;;;11.10;1.00;;;;;;5030311;28;19913;-76
2021/11/02 12:09:14;;;;;;;;;;;11.20;99.90;;;;;;5031702;28;20321;-75
2021/11/02 12:11:41;;;;;;;;;;;11.20;3.20;;;;;;5030592;28;20357;-76
2021/11/02 12:14:21;;;;;;;;;;;11.30;99.90;;;;;;5030801;28;19917;-76
2021/11/02 12:16:46;;;;;;;;;;;11.20;99.90;;;;;;5031198;28;19914;-76
2021/11/02 12:19:19;;;;;;;;;;;11.20;99.90;;;;;;5031470;28;19959;-75
2021/11/02 12:21:48;;;;;;;;;;;11.20;99.90;;;;;;5030449;28;20286;-74
2021/11/02 12:24:18;;;;;;;;;;;11.40;24.80;;;;;;5031104;28;19924;-77
2021/11/02 12:26:47;;;;;;;;;;;11.60;1.00;;;;;;5034720;28;19913;-78
2021/11/02 12:29:17;;;;;;;;;;;12.00;1.00;;;;;;5034203;28;19916;-78
2021/11/02 12:31:43;;;;;;;;;;;12.20;99.90;;;;;;5034239;28;19910;-78
2021/11/02 12:34:14;;;;;;;;;;;12.50;99.90;;;;;;5037016;28;20324;-77
2021/11/02 12:36:50;;;;;;;;;;;12.90;1.00;;;;;;5035684;28;19909;-78
2021/11/02 12:39:18;;;;;;;;;;;13.10;1.00;;;;;;5036377;28;19909;-78
2021/11/02 12:41:47;;;;;;;;;;;13.20;1.00;;;;;;5039628;28;19952;-77
2021/11/02 12:44:15;;;;;;;;;;;13.20;1.00;;;;;;5016344;28;19909;-78
2021/11/02 12:46:45;;;;;;;;;;;13.00;1.00;;;;;;5041995;28;20393;-75
2021/11/02 12:49:13;;;;;;;;;;;12.70;1.00;;;;;;5058953;22;19932;-78
2021/11/02 12:51:44;;;;;;;;;;;12.40;1.00;;;;;;5032528;28;20003;-79
2021/11/02 12:54:12;;;;;;;;;;;12.20;1.00;;;;;;5032310;28;20058;-79
2021/11/02 12:56:40;;;;;;;;;;;11.90;1.00;;;;;;5049559;28;19939;-77
2021/11/02 12:59:19;;;;;;;;;;;11.70;1.00;;;;;;5050126;28;19916;-78
2021/11/02 13:01:45;;;;;;;;;;;11.60;1.00;;;;;;5048334;28;19916;-73
2021/11/02 13:04:11;;;;;;;;;;;11.60;1.00;;;;;;5050130;28;19913;-79
2021/11/02 13:06:46;;;;;;;;;;;11.60;21.80;;;;;;5049252;28;20035;-77
2021/11/02 13:09:19;;;;;;;;;;;11.70;1.00;;;;;;5049658;28;19912;-76
2021/11/02 13:11:45;;;;;;;;;;;11.70;1.00;;;;;;5048830;28;19948;-77
2021/11/02 13:14:12;;;;;;;;;;;11.80;1.00;;;;;;5049065;28;19975;-77
2021/11/02 13:16:56;;;;;;;;;;;11.80;1.00;;;;;;5049419;28;19924;-77
2021/11/02 13:19:24;;;;;;;;;;;11.80;1.00;;;;;;5049120;28;20006;-77
2021/11/02 13:21:49;;;;;;;;;;;11.90;1.00;;;;;;5048645;28;19909;-77
2021/11/02 13:24:20;;;;;;;;;;;12.10;1.00;;;;;;5042405;28;19909;-78
2021/11/02 13:26:50;;;;;;;;;;;12.30;1.00;;;;;;5048474;28;19963;-76
2021/11/02 13:29:23;;;;;;;;;;;12.50;1.00;;;;;;5049261;28;20097;-76
2021/11/02 13:31:53;;;;;;;;;;;12.50;1.00;;;;;;5048158;28;19968;-76
2021/11/02 13:34:31;;;;;;;;;;;12.30;1.00;;;;;;5049263;28;20361;-77
2021/11/02 13:37:15;;;;;;;;;;;12.30;1.00;;;;;;5049792;28;19912;-76
2021/11/02 13:39:59;;;;;;;;;;;12.40;1.00;;;;;;5048397;28;19951;-77
2021/11/02 13:42:43;;;;;;;;;;;12.40;1.00;;;;;;5061245;28;19944;-76
2021/11/02 13:45:09;;;;;;;;;;;12.50;1.00;;;;;;5069002;28;19966;-77
2021/11/02 13:47:35;;;;;;;;;;;12.60;1.00;;;;;;5052151;28;19930;-77
2021/11/02 13:50:01;;;;;;;;;;;12.50;1.00;;;;;;5070923;28;20414;-78
2021/11/02 13:52:26;;;;;;;;;;;12.40;1.00;;;;;;5072072;28;19912;-78
2021/11/02 13:54:52;;;;;;;;;;;12.50;1.00;;;;;;5070611;28;19917;-78
2021/11/02 13:57:17;;;;;;;;;;;12.70;1.00;;;;;;5070983;28;20007;-78
2021/11/02 13:59:43;;;;;;;;;;;12.80;1.00;;;;;;5071266;28;19912;-79
2021/11/02 14:02:09;;;;;;;;;;;12.80;1.00;;;;;;5070696;28;19908;-78
2021/11/02 14:04:39;;;;;;;;;;;12.80;1.00;;;;;;5072541;28;19913;-79
2021/11/02 14:07:15;;;;;;;;;;;12.70;1.00;;;;;;5057578;28;19999;-79
2021/11/02 14:09:46;;;;;;;;;;;12.50;1.00;;;;;;5075508;28;19958;-79
2021/11/02 14:12:18;;;;;;;;;;;12.20;1.00;;;;;;5075379;28;20349;-78
2021/11/02 14:14:44;;;;;;;;;;;12.00;1.00;;;;;;5075315;28;20326;-78
2021/11/02 14:17:23;;;;;;;;;;;11.80;1.00;;;;;;5075852;28;19914;-79
2021/11/02 14:19:49;;;;;;;;;;;11.60;1.00;;;;;;5057686;28;19931;-78
2021/11/02 14:22:35;;;;;;;;;;;11.50;1.00;;;;;;5055261;28;19980;-79
2021/11/02 14:25:30;;;;;;;;;;;11.50;1.00;;;;;;5044161;28;19978;-77
2021/11/02 14:27:56;;;;;;;;;;;11.60;1.00;;;;;;5033398;28;19967;-77
2021/11/02 14:30:30;;;;;;;;;;;11.40;1.00;;;;;;5054858;28;19953;-80
2021/11/02 14:32:56;;;;;;;;;;;11.40;1.00;;;;;;5054314;28;19916;-77
2021/11/02 14:35:34;;;;;;;;;;;11.30;1.00;;;;;;5038616;28;19913;-79
2021/11/02 14:38:02;;;;;;;;;;;11.30;1.00;;;;;;5057283;28;19909;-76
2021/11/02 14:40:29;;;;;;;;;;;11.30;1.00;;;;;;5038318;28;20016;-78
2021/11/02 14:42:55;;;;;;;;;;;11.30;1.00;;;;;;5035482;28;19971;-77
2021/11/02 14:45:39;;;;;;;;;;;11.40;1.00;;;;;;5034406;28;19921;-77
2021/11/02 14:48:23;;;;;;;;;;;11.40;91.10;;;;;;5035526;28;19913;-77
2021/11/02 14:50:49;;;;;;;;;;;11.20;18.30;;;;;;5034063;28;19967;-76
2021/11/02 14:53:27;;;;;;;;;;;11.20;99.90;;;;;;5033453;28;19909;-77
2021/11/02 14:56:05;;;;;;;;;;;11.10;1.00;;;;;;5031638;28;19921;-77
2021/11/02 14:58:43;;;;;;;;;;;11.00;1.00;;;;;;5014828;28;19953;-77
2021/11/02 15:01:10;;;;;;;;;;;11.00;99.90;;;;;;5031742;28;19913;-77
2021/11/02 15:03:37;;;;;;;;;;;11.00;1.00;;;;;;5035364;28;19913;-77
2021/11/02 15:06:04;;;;;;;;;;;10.90;1.00;;;;;;5013528;28;19917;-79
2021/11/02 15:08:30;;;;;;;;;;;10.90;1.00;;;;;;5033998;28;19956;-77
2021/11/02 15:10:57;;;;;;;;;;;10.90;1.00;;;;;;5030407;28;19955;-77
2021/11/02 15:13:23;;;;;;;;;;;10.80;1.00;;;;;;5031393;28;20386;-77
2021/11/02 15:15:48;;;;;;;;;;;11.00;1.00;;;;;;5040310;28;20434;-77
2021/11/02 15:18:14;;;;;;;;;;;11.20;99.90;;;;;;5060817;28;19909;-77
2021/11/02 15:20:40;;;;;;;;;;;11.30;99.90;;;;;;5051311;28;20281;-77
2021/11/02 15:23:05;;;;;;;;;;;11.20;99.90;;;;;;5057032;28;19913;-76
2021/11/02 15:25:31;;;;;;;;;;;11.10;99.90;;;;;;5035694;28;20039;-77
2021/11/02 15:27:58;;;;;;;;;;;10.90;1.00;;;;;;5051623;28;19909;-77
2021/11/02 15:30:35;;;;;;;;;;;10.70;1.00;;;;;;5059291;28;19908;-77
2021/11/02 15:33:00;;;;;;;;;;;10.50;1.00;;;;;;5052415;28;20261;-76
2021/11/02 15:35:26;;;;;;;;;;;10.30;1.00;;;;;;5049781;28;19916;-76
2021/11/02 15:37:56;;;;;;;;;;;10.10;1.00;;;;;;5051063;28;19916;-76
2021/11/02 15:40:36;;;;;;;;;;;9.90;99.90;;;;;;5034193;28;19917;-77
2021/11/02 15:43:04;;;;;;;;;;;9.70;1.00;;;;;;5031436;28;19916;-76
2021/11/02 15:45:35;;;;;;;;;;;9.60;1.00;;;;;;5029908;28;20005;-76
2021/11/02 15:48:04;;;;;;;;;;;9.50;99.90;;;;;;5031286;28;20274;-76
2021/11/02 15:50:30;;;;;;;;;;;9.30;1.00;;;;;;5030195;28;19925;-77
2021/11/02 15:53:00;;;;;;;;;;;9.20;1.00;;;;;;5030183;28;19913;-75
2021/11/02 15:55:26;;;;;;;;;;;9.10;1.00;;;;;;5028920;28;19909;-76
2021/11/02 15:57:53;;;;;;;;;;;8.90;11.60;;;;;;5043290;28;19916;-76
2021/11/02 16:00:23;;;;;;;;;;;8.90;1.50;;;;;;5049704;28;19912;-78
2021/11/02 16:02:49;;;;;;;;;;;8.70;99.90;;;;;;5051050;28;19992;-79
2021/11/02 16:05:22;;;;;;;;;;;8.60;99.90;;;;;;5051165;28;19913;-77
2021/11/02 16:07:48;;;;;;;;;;;8.60;99.90;;;;;;5052112;28;19955;-78
2021/11/02 16:10:14;;;;;;;;;;;8.50;99.90;;;;;;5049813;28;19944;-77
2021/11/02 16:12:41;;;;;;;;;;;8.40;1.00;;;;;;5050541;28;19930;-78
2021/11/02 16:15:06;;;;;;;;;;;8.30;1.00;;;;;;5049369;28;19931;-77
2021/11/02 16:17:43;;;;;;;;;;;8.20;1.00;;;;;;5052099;28;19917;-75
2021/11/02 16:20:29;;;;;;;;;;;8.20;1.00;;;;;;5050083;28;20019;-78
2021/11/02 16:23:11;;;;;;;;;;;8.10;1.00;;;;;;5054015;28;19909;-78
2021/11/02 16:25:41;;;;;;;;;;;8.00;1.00;;;;;;5053302;28;20024;-78
2021/11/02 16:28:18;;;;;;;;;;;7.90;1.00;;;;;;5049113;28;20867;-77
2021/11/02 16:30:48;;;;;;;;;;;7.90;1.00;;;;;;5032069;28;19923;-77
2021/11/02 16:33:14;;;;;;;;;;;7.80;1.00;;;;;;5052021;28;19948;-79
2021/11/02 16:35:42;;;;;;;;;;;7.80;1.00;;;;;;5048804;28;20299;-74
2021/11/02 16:38:21;;;;;;;;;;;7.80;1.00;;;;;;5049810;28;20618;-73
2021/11/02 16:40:48;;;;;;;;;;;7.90;1.00;;;;;;5056919;28;19984;-73
2021/11/02 16:43:14;;;;;;;;;;;7.90;1.00;;;;;;5066324;28;19908;-73
2021/11/02 16:45:39;;;;;;;;;;;7.80;1.00;;;;;;5069060;28;19969;-74
2021/11/02 16:48:06;;;;;;;;;;;7.80;1.00;;;;;;5069056;28;19988;-73
2021/11/02 16:50:34;;;;;;;;;;;7.70;1.00;;;;;;5065419;28;19920;-74
2021/11/02 16:53:11;;;;;;;;;;;7.70;1.00;;;;;;5056826;28;19912;-74
2021/11/02 16:55:39;;;;;;;;;;;7.70;1.00;;;;;;5010284;28;19937;-73
2021/11/02 16:58:21;;;;;;;;;;;7.60;1.00;;;;;;5029232;28;19920;-74
2021/11/02 17:00:50;;;;;;;;;;;7.60;1.00;;;;;;5028681;28;19955;-73
2021/11/02 17:03:23;;;;;;;;;;;7.60;1.00;;;;;;5028038;28;19909;-75
2021/11/02 17:05:48;;;;;;;;;;;7.60;1.00;;;;;;5028852;28;19917;-74
2021/11/02 17:08:14;;;;;;;;;;;7.60;1.00;;;;;;5028617;28;20311;-75
2021/11/02 17:10:41;;;;;;;;;;;7.70;1.00;;;;;;5010880;28;20306;-74
2021/11/02 17:13:13;;;;;;;;;;;7.80;1.00;;;;;;5029235;28;20003;-75
2021/11/02 17:15:45;;;;;;;;;;;7.80;1.00;;;;;;5028938;28;19936;-75
2021/11/02 17:18:18;;;;;;;;;;;7.70;1.00;;;;;;5031451;28;20067;-74
2021/11/02 17:21:00;;;;;;;;;;;7.80;1.00;;;;;;5049030;28;20340;-74
2021/11/02 17:23:26;;;;;;;;;;;7.80;1.00;;;;;;5057342;28;19960;-74
2021/11/02 17:25:51;;;;;;;;;;;7.70;1.00;;;;;;5050600;28;20337;-75
2021/11/02 17:28:18;;;;;;;;;;;7.60;1.00;;;;;;5049327;28;19909;-75
2021/11/02 17:30:44;;;;;;;;;;;7.50;1.00;;;;;;5049080;28;19996;-73
2021/11/02 17:33:10;;;;;;;;;;;7.40;1.00;;;;;;5048810;28;20445;-75
2021/11/02 17:35:35;;;;;;;;;;;7.40;1.00;;;;;;5048899;28;19936;-73
2021/11/02 17:38:02;;;;;;;;;;;7.30;1.00;;;;;;5049426;28;19916;-74
2021/11/02 17:40:27;;;;;;;;;;;7.30;1.00;;;;;;5033765;28;19913;-75
2021/11/02 17:42:57;;;;;;;;;;;7.30;1.00;;;;;;5032440;28;20242;-75
2021/11/02 17:45:23;;;;;;;;;;;7.30;1.00;;;;;;5014952;28;19913;-74
2021/11/02 17:47:49;;;;;;;;;;;7.30;1.00;;;;;;5033910;28;20035;-74
2021/11/02 17:50:16;;;;;;;;;;;7.30;1.00;;;;;;5033265;28;20330;-75
2021/11/02 17:52:42;;;;;;;;;;;7.20;1.00;;;;;;5033205;28;19967;-75
2021/11/02 17:55:09;;;;;;;;;;;7.20;1.00;;;;;;5032308;28;20393;-76
2021/11/02 17:57:35;;;;;;;;;;;7.20;1.00;;;;;;5033474;28;19921;-77
2021/11/02 18:00:01;;;;;;;;;;;7.10;1.00;;;;;;5033508;28;19909;-74
2021/11/02 18:02:27;;;;;;;;;;;7.10;1.00;;;;;;5033624;28;20489;-79
2021/11/02 18:04:53;;;;;;;;;;;7.00;1.00;;;;;;5033463;28;20436;-76
2021/11/02 18:07:19;;;;;;;;;;;7.00;1.00;;;;;;5033944;28;20011;-76
2021/11/02 18:09:45;;;;;;;;;;;7.00;1.00;;;;;;5032835;28;19940;-77
2021/11/02 18:12:10;;;;;;;;;;;7.00;1.00;;;;;;5032959;28;19916;-76
2021/11/02 18:14:36;;;;;;;;;;;7.00;1.00;;;;;;5034489;28;19945;-75
2021/11/02 18:17:02;;;;;;;;;;;7.00;1.00;;;;;;5066895;28;20000;-76
2021/11/02 18:19:28;;;;;;;;;;;7.00;1.00;;;;;;5055864;28;19912;-75
2021/11/02 18:21:56;;;;;;;;;;;7.00;1.00;;;;;;5053754;28;19913;-75
2021/11/02 18:24:22;;;;;;;;;;;6.90;1.00;;;;;;5064500;28;19946;-76
2021/11/02 18:26:48;;;;;;;;;;;6.80;1.00;;;;;;5056035;28;20004;-77
2021/11/02 18:29:13;;;;;;;;;;;6.80;1.00;;;;;;5055990;28;19909;-77
2021/11/02 18:31:39;;;;;;;;;;;6.70;1.00;;;;;;5055892;28;19913;-78
2021/11/02 18:34:05;;;;;;;;;;;6.60;1.00;;;;;;5054525;28;20396;-77
2021/11/02 18:36:31;;;;;;;;;;;6.60;1.00;;;;;;5054182;28;19913;-75
2021/11/02 18:38:57;;;;;;;;;;;6.50;1.00;;;;;;5049812;28;19909;-76
2021/11/02 18:41:24;;;;;;;;;;;6.50;1.00;;;;;;5034146;28;19918;-76
2021/11/02 18:43:50;;;;;;;;;;;6.40;1.00;;;;;;5034298;28;19909;-77
2021/11/02 18:46:15;;;;;;;;;;;6.30;1.00;;;;;;5034088;28;20250;-77
2021/11/02 18:48:41;;;;;;;;;;;6.20;1.00;;;;;;5043714;22;19937;-75
2021/11/02 18:51:07;;;;;;;;;;;6.20;1.00;;;;;;5010885;28;19949;-74
2021/11/02 18:53:33;;;;;;;;;;;6.30;1.00;;;;;;5011788;28;19910;-75
2021/11/02 18:55:59;;;;;;;;;;;6.20;1.00;;;;;;5010564;28;19914;-75
2021/11/02 18:58:24;;;;;;;;;;;6.10;1.00;;;;;;5000367;28;19921;-75
2021/11/02 19:00:50;;;;;;;;;;;6.10;1.00;;;;;;4991535;28;19917;-75
2021/11/02 19:03:16;;;;;;;;;;;6.00;1.00;;;;;;4992116;28;19910;-75
2021/11/02 19:05:42;;;;;;;;;;;6.00;1.00;;;;;;4991816;28;19914;-75
2021/11/02 19:08:09;;;;;;;;;;;6.00;1.00;;;;;;4992183;28;20402;-75
2021/11/02 19:10:34;;;;;;;;;;;6.00;1.00;;;;;;4991249;28;19985;-75
2021/11/02 19:13:00;;;;;;;;;;;6.00;1.00;;;;;;4991570;28;20387;-75
2021/11/02 19:15:25;;;;;;;;;;;5.90;1.00;;;;;;4991721;28;20000;-74
2021/11/02 19:17:51;;;;;;;;;;;5.90;1.00;;;;;;4974943;28;20403;-75
2021/11/02 19:20:18;;;;;;;;;;;5.90;1.00;;;;;;5010626;28;19909;-75
2021/11/02 19:22:44;;;;;;;;;;;5.80;1.00;;;;;;5011032;28;19944;-75
2021/11/02 19:25:10;;;;;;;;;;;5.70;1.00;;;;;;5010341;28;19953;-75
2021/11/02 19:27:36;;;;;;;;;;;5.70;1.00;;;;;;5011987;28;19921;-76
2021/11/02 19:30:02;;;;;;;;;;;5.60;1.00;;;;;;4993279;28;19910;-75
2021/11/02 19:32:28;;;;;;;;;;;5.60;1.00;;;;;;5010844;28;20426;-75
2021/11/02 19:34:53;;;;;;;;;;;5.50;1.00;;;;;;5011177;28;19909;-75
2021/11/02 19:37:19;;;;;;;;;;;5.60;1.00;;;;;;5010839;28;20353;-75
2021/11/02 19:39:44;;;;;;;;;;;5.60;1.00;;;;;;5010746;28;19929;-75
2021/11/02 19:42:10;;;;;;;;;;;5.60;1.00;;;;;;5002033;28;20570;-75
2021/11/02 19:44:36;;;;;;;;;;;5.50;1.00;;;;;;5011299;28;20020;-75